Time,TemperatureF,DewpointF,PressureIn,WindDirection,WindDirectionDegrees,WindSpeedMPH,WindSpeedGustMPH,Humidity,HourlyPrecipIn,Conditions,Clouds,dailyrainin,SoftwareType,DateUTC
2013-07-18 00:01:00,79.0,47.0,-100.00,NW,311,3.0,5.0,33,0.00,,,0.00,,2013-07-18 06:01:00,
2013-07-18 00:22:00,78.0,48.0,-100.00,West,260,1.0,4.0,34,0.00,,,0.00,,2013-07-18 06:22:00,
2013-07-18 00:30:00,77.0,47.0,-100.00,WNW,295,1.0,4.0,35,0.00,,,0.00,,2013-07-18 06:30:00,
2013-07-18 00:32:00,78.0,48.0,-100.00,West,260,1.0,4.0,34,0.00,,,0.00,,2013-07-18 06:32:00,
2013-07-18 00:43:00,78.0,47.0,-100.00,NW,311,3.0,4.0,34,0.00,,,0.00,,2013-07-18 06:43:00,
2013-07-18 00:52:00,78.0,47.0,-100.00,NW,311,3.0,4.0,34,0.00,,,0.00,,2013-07-18 06:52:00,
2013-07-18 01:01:00,78.0,47.0,-100.00,NW,311,3.0,4.0,34,0.00,,,0.00,,2013-07-18 07:01:00,
2013-07-18 01:11:00,78.0,47.0,-100.00,NW,311,3.0,4.0,34,0.00,,,0.00,,2013-07-18 07:11:00,
2013-07-18 01:22:00,77.0,47.0,-100.00,WNW,295,1.0,4.0,35,0.00,,,0.00,,2013-07-18 07:22:00,
2013-07-18 01:42:00,74.0,49.0,-100.00,West,275,1.0,2.0,42,0.00,,,0.00,,2013-07-18 07:42:00,
2013-07-18 01:52:00,74.0,47.0,-100.00,North,354,3.0,4.0,38,0.00,,,0.00,,2013-07-18 07:52:00,
2013-07-18 02:01:00,74.0,47.0,-100.00,North,354,3.0,4.0,38,0.00,,,0.00,,2013-07-18 08:01:00,
2013-07-18 02:11:00,74.0,47.0,-100.00,North,354,3.0,4.0,38,0.00,,,0.00,,2013-07-18 08:11:00,
2013-07-18 02:21:00,75.0,47.0,-100.00,NW,308,3.0,6.0,36,0.00,,,0.00,,2013-07-18 08:21:00,
2013-07-18 02:32:00,75.0,47.0,-100.00,NW,308,3.0,6.0,36,0.00,,,0.00,,2013-07-18 08:32:00,
2013-07-18 02:42:00,75.0,47.0,-100.00,NW,308,3.0,6.0,36,0.00,,,0.00,,2013-07-18 08:42:00,
2013-07-18 02:51:00,74.0,47.0,-100.00,WSW,253,2.0,5.0,37,0.00,,,0.00,,2013-07-18 08:51:00,
2013-07-18 03:01:00,74.0,47.0,-100.00,WSW,253,2.0,5.0,37,0.00,,,0.00,,2013-07-18 09:01:00,
2013-07-18 03:11:00,74.0,47.0,-100.00,WSW,253,2.0,5.0,37,0.00,,,0.00,,2013-07-18 09:11:00,
2013-07-18 03:31:00,71.0,47.0,-100.00,SSW,209,1.0,2.0,42,0.00,,,0.00,,2013-07-18 09:31:00,
2013-07-18 03:42:00,71.0,47.0,-100.00,SSW,209,1.0,2.0,42,0.00,,,0.00,,2013-07-18 09:42:00,
2013-07-18 03:51:00,71.0,47.0,-100.00,SSW,209,1.0,2.0,42,0.00,,,0.00,,2013-07-18 09:51:00,
2013-07-18 04:01:00,71.0,47.0,-100.00,SSW,209,1.0,2.0,42,0.00,,,0.00,,2013-07-18 10:01:00,
2013-07-18 04:21:00,70.0,47.0,-100.00,WNW,298,1.0,2.0,45,0.00,,,0.00,,2013-07-18 10:21:00,
2013-07-18 04:32:00,70.0,47.0,-100.00,WNW,298,1.0,2.0,45,0.00,,,0.00,,2013-07-18 10:32:00,
2013-07-18 04:42:00,70.0,47.0,-100.00,WNW,298,1.0,2.0,45,0.00,,,0.00,,2013-07-18 10:42:00,
2013-07-18 04:52:00,69.0,47.0,-100.00,NW,308,1.0,2.0,46,0.00,,,0.00,,2013-07-18 10:52:00,
2013-07-18 05:01:00,69.0,47.0,-100.00,NW,308,1.0,2.0,46,0.00,,,0.00,,2013-07-18 11:01:00,
2013-07-18 05:22:00,69.0,47.0,-100.00,SW,232,1.0,3.0,45,0.00,,,0.00,,2013-07-18 11:22:00,
2013-07-18 05:32:00,69.0,47.0,-100.00,SW,232,1.0,3.0,45,0.00,,,0.00,,2013-07-18 11:32:00,
2013-07-18 05:43:00,69.0,47.0,-100.00,SW,232,1.0,3.0,45,0.00,,,0.00,,2013-07-18 11:43:00,
2013-07-18 05:52:00,69.0,47.0,-100.00,SW,232,1.0,3.0,45,0.00,,,0.00,,2013-07-18 11:52:00,
2013-07-18 06:01:00,70.0,47.0,-100.00,NE,38,1.0,3.0,42,0.00,,,0.00,,2013-07-18 12:01:00,
2013-07-18 06:11:00,70.0,47.0,-100.00,NE,38,1.0,3.0,42,0.00,,,0.00,,2013-07-18 12:11:00,
2013-07-18 06:32:00,70.0,47.0,-100.00,ENE,76,2.0,5.0,43,0.00,,,0.00,,2013-07-18 12:32:00,
2013-07-18 06:42:00,70.0,47.0,-100.00,ENE,76,2.0,5.0,43,0.00,,,0.00,,2013-07-18 12:42:00,
2013-07-18 06:52:00,70.0,47.0,-100.00,ENE,76,2.0,5.0,43,0.00,,,0.00,,2013-07-18 12:52:00,
2013-07-18 07:01:00,69.0,47.0,-100.00,NNW,347,3.0,6.0,46,0.00,,,0.00,,2013-07-18 13:01:00,
2013-07-18 07:11:00,69.0,47.0,-100.00,NNW,347,3.0,6.0,46,0.00,,,0.00,,2013-07-18 13:11:00,
2013-07-18 07:22:00,69.0,47.0,-100.00,NNW,347,3.0,6.0,46,0.00,,,0.00,,2013-07-18 13:22:00,
2013-07-18 07:32:00,65.0,47.0,-100.00,WNW,291,2.0,3.0,52,0.00,,,0.00,,2013-07-18 13:32:00,
2013-07-18 07:43:00,65.0,47.0,-100.00,WNW,291,2.0,3.0,52,0.00,,,0.00,,2013-07-18 13:43:00,
2013-07-18 07:53:00,65.0,47.0,-100.00,WNW,291,2.0,3.0,52,0.00,,,0.00,,2013-07-18 13:53:00,
2013-07-18 08:11:00,67.0,47.0,-100.00,NNE,23,5.0,8.0,49,0.00,,,0.00,,2013-07-18 14:11:00,
2013-07-18 08:32:00,65.0,49.0,-100.00,WNW,301,1.0,3.0,55,0.00,,,0.00,,2013-07-18 14:32:00,
2013-07-18 08:43:00,65.0,49.0,-100.00,WNW,301,1.0,3.0,55,0.00,,,0.00,,2013-07-18 14:43:00,
2013-07-18 08:53:00,65.0,49.0,-100.00,WNW,301,1.0,3.0,55,0.00,,,0.00,,2013-07-18 14:53:00,
2013-07-18 09:11:00,71.0,49.0,-100.00,NE,37,2.0,6.0,46,0.00,,,0.00,,2013-07-18 15:11:00,
2013-07-18 09:22:00,71.0,49.0,-100.00,NE,37,2.0,6.0,46,0.00,,,0.00,,2013-07-18 15:22:00,
2013-07-18 09:32:00,73.0,49.0,-100.00,WNW,301,3.0,7.0,43,0.00,,,0.00,,2013-07-18 15:32:00,
2013-07-18 09:43:00,75.0,49.0,-100.00,North,3,3.0,5.0,40,0.00,,,0.00,,2013-07-18 15:43:00,
2013-07-18 09:53:00,75.0,49.0,-100.00,North,3,3.0,5.0,40,0.00,,,0.00,,2013-07-18 15:53:00,
2013-07-18 10:01:00,78.0,50.0,-100.00,WNW,284,3.0,7.0,38,0.00,,,0.00,,2013-07-18 16:01:00,
2013-07-18 10:11:00,78.0,50.0,-100.00,WNW,284,3.0,7.0,38,0.00,,,0.00,,2013-07-18 16:11:00,
2013-07-18 10:22:00,78.0,50.0,-100.00,WNW,284,3.0,7.0,38,0.00,,,0.00,,2013-07-18 16:22:00,
2013-07-18 10:31:00,81.0,49.0,-100.00,NNW,328,2.0,4.0,33,0.00,,,0.00,,2013-07-18 16:31:00,
2013-07-18 10:42:00,81.0,49.0,-100.00,NNW,328,2.0,4.0,33,0.00,,,0.00,,2013-07-18 16:42:00,
2013-07-18 10:52:00,81.0,49.0,-100.00,NNW,328,2.0,4.0,33,0.00,,,0.00,,2013-07-18 16:52:00,
2013-07-18 11:01:00,82.0,50.0,-100.00,WNW,295,3.0,6.0,33,0.00,,,0.00,,2013-07-18 17:01:00,
2013-07-18 11:11:00,82.0,50.0,-100.00,WNW,295,3.0,6.0,33,0.00,,,0.00,,2013-07-18 17:11:00,
2013-07-18 11:22:00,82.0,50.0,-100.00,WNW,295,3.0,6.0,33,0.00,,,0.00,,2013-07-18 17:22:00,
2013-07-18 11:43:00,86.0,40.0,-100.00,NW,304,4.0,7.0,20,0.00,,,0.00,,2013-07-18 17:43:00,
2013-07-18 11:52:00,86.0,40.0,-100.00,NW,304,4.0,7.0,20,0.00,,,0.00,,2013-07-18 17:52:00,
2013-07-18 12:11:00,86.0,37.0,-100.00,WNW,284,4.0,6.0,17,0.00,,,0.00,,2013-07-18 18:11:00,
2013-07-18 12:22:00,86.0,37.0,-100.00,WNW,284,4.0,6.0,17,0.00,,,0.00,,2013-07-18 18:22:00,
2013-07-18 12:32:00,88.0,38.0,-100.00,WSW,256,2.0,3.0,17,0.00,,,0.00,,2013-07-18 18:32:00,
2013-07-18 12:43:00,88.0,38.0,-100.00,WSW,256,2.0,3.0,17,0.00,,,0.00,,2013-07-18 18:43:00,
2013-07-18 12:52:00,88.0,38.0,-100.00,WSW,256,2.0,3.0,17,0.00,,,0.00,,2013-07-18 18:52:00,
2013-07-18 13:01:00,89.0,34.0,-100.00,NW,305,4.0,6.0,14,0.00,,,0.00,,2013-07-18 19:01:00,
2013-07-18 13:11:00,89.0,34.0,-100.00,NW,305,4.0,6.0,14,0.00,,,0.00,,2013-07-18 19:11:00,
2013-07-18 13:22:00,89.0,34.0,-100.00,NW,305,4.0,6.0,14,0.00,,,0.00,,2013-07-18 19:22:00,
2013-07-18 13:32:00,89.0,34.0,-100.00,NW,305,4.0,6.0,14,0.00,,,0.00,,2013-07-18 19:32:00,
2013-07-18 13:43:00,89.0,34.0,-100.00,NW,305,4.0,6.0,14,0.00,,,0.00,,2013-07-18 19:43:00,
2013-07-18 13:53:00,91.0,35.0,-100.00,South,184,1.0,3.0,14,0.00,,,0.00,,2013-07-18 19:53:00,
2013-07-18 14:01:00,91.0,35.0,-100.00,South,184,1.0,3.0,14,0.00,,,0.00,,2013-07-18 20:01:00,
2013-07-18 14:21:00,90.0,33.0,-100.00,East,89,2.0,4.0,13,0.00,,,0.00,,2013-07-18 20:21:00,
2013-07-18 14:32:00,90.0,33.0,-100.00,East,89,2.0,4.0,13,0.00,,,0.00,,2013-07-18 20:32:00,
2013-07-18 14:52:00,92.0,35.0,-100.00,SW,223,2.0,3.0,13,0.00,,,0.00,,2013-07-18 20:52:00,
2013-07-18 15:01:00,92.0,35.0,-100.00,SW,223,2.0,3.0,13,0.00,,,0.00,,2013-07-18 21:01:00,
2013-07-18 15:11:00,92.0,35.0,-100.00,SW,223,2.0,3.0,13,0.00,,,0.00,,2013-07-18 21:11:00,
2013-07-18 15:32:00,93.0,34.0,-100.00,SSE,151,3.0,6.0,13,0.00,,,0.00,,2013-07-18 21:32:00,
2013-07-18 15:52:00,94.0,35.0,-100.00,South,191,4.0,11.0,13,0.00,,,0.00,,2013-07-18 21:52:00,
2013-07-18 16:01:00,94.0,35.0,-100.00,South,191,4.0,11.0,13,0.00,,,0.00,,2013-07-18 22:01:00,
2013-07-18 16:11:00,94.0,35.0,-100.00,South,191,4.0,11.0,13,0.00,,,0.00,,2013-07-18 22:11:00,
2013-07-18 16:22:00,93.0,41.0,-100.00,SW,215,3.0,8.0,16,0.00,,,0.00,,2013-07-18 22:22:00,
2013-07-18 16:32:00,93.0,41.0,-100.00,SW,215,3.0,8.0,16,0.00,,,0.00,,2013-07-18 22:32:00,
2013-07-18 16:42:00,93.0,35.0,-100.00,NW,319,5.0,6.0,13,0.00,,,0.00,,2013-07-18 22:42:00,
2013-07-18 16:53:00,93.0,35.0,-100.00,NW,319,5.0,6.0,13,0.00,,,0.00,,2013-07-18 22:53:00,
2013-07-18 17:01:00,93.0,35.0,-100.00,NW,319,5.0,6.0,13,0.00,,,0.00,,2013-07-18 23:01:00,
2013-07-18 17:22:00,92.0,34.0,-100.00,WNW,298,3.0,4.0,13,0.00,,,0.00,,2013-07-18 23:22:00,
2013-07-18 17:32:00,92.0,34.0,-100.00,WNW,298,3.0,4.0,13,0.00,,,0.00,,2013-07-18 23:32:00,
2013-07-18 17:52:00,92.0,33.0,-100.00,NW,309,2.0,3.0,12,0.00,,,0.00,,2013-07-18 23:52:00,
2013-07-18 18:01:00,92.0,33.0,-100.00,NW,309,2.0,3.0,12,0.00,,,0.00,,2013-07-19 00:01:00,
2013-07-18 18:11:00,92.0,33.0,-100.00,NW,309,2.0,3.0,12,0.00,,,0.00,,2013-07-19 00:11:00,
2013-07-18 18:22:00,94.0,33.0,-100.00,SSE,167,5.0,7.0,12,0.00,,,0.00,,2013-07-19 00:22:00,
2013-07-18 18:32:00,94.0,33.0,-100.00,SSE,167,5.0,7.0,12,0.00,,,0.00,,2013-07-19 00:32:00,
2013-07-18 18:42:00,93.0,37.0,-100.00,West,268,1.0,2.0,14,0.00,,,0.00,,2013-07-19 00:42:00,
2013-07-18 18:52:00,93.0,37.0,-100.00,West,268,1.0,2.0,14,0.00,,,0.00,,2013-07-19 00:52:00,
2013-07-18 19:01:00,93.0,37.0,-100.00,West,268,1.0,2.0,14,0.00,,,0.00,,2013-07-19 01:01:00,
2013-07-18 19:22:00,93.0,35.0,-100.00,SSE,167,4.0,5.0,13,0.00,,,0.00,,2013-07-19 01:22:00,
2013-07-18 19:32:00,93.0,35.0,-100.00,SSE,167,4.0,5.0,13,0.00,,,0.00,,2013-07-19 01:32:00,
2013-07-18 19:42:00,93.0,35.0,-100.00,SSE,155,6.0,11.0,13,0.00,,,0.00,,2013-07-19 01:42:00,
2013-07-18 19:52:00,93.0,35.0,-100.00,SSE,155,6.0,11.0,13,0.00,,,0.00,,2013-07-19 01:52:00,
2013-07-18 20:01:00,93.0,35.0,-100.00,SSE,155,6.0,11.0,13,0.00,,,0.00,,2013-07-19 02:01:00,
2013-07-18 20:22:00,92.0,38.0,-100.00,WNW,285,3.0,6.0,15,0.00,,,0.00,,2013-07-19 02:22:00,
2013-07-18 20:32:00,92.0,38.0,-100.00,WNW,285,3.0,6.0,15,0.00,,,0.00,,2013-07-19 02:32:00,
2013-07-18 20:52:00,91.0,38.0,-100.00,WNW,292,4.0,10.0,15,0.00,,,0.00,,2013-07-19 02:52:00,
2013-07-18 21:01:00,91.0,38.0,-100.00,WNW,292,4.0,10.0,15,0.00,,,0.00,,2013-07-19 03:01:00,
2013-07-18 21:22:00,88.0,42.0,-100.00,North,352,2.0,5.0,20,0.00,,,0.00,,2013-07-19 03:22:00,
2013-07-18 21:32:00,88.0,42.0,-100.00,North,352,2.0,5.0,20,0.00,,,0.00,,2013-07-19 03:32:00,
2013-07-18 21:52:00,87.0,40.0,-100.00,North,352,3.0,6.0,20,0.00,,,0.00,,2013-07-19 03:52:00,
2013-07-18 22:02:00,87.0,40.0,-100.00,North,352,3.0,6.0,20,0.00,,,0.00,,2013-07-19 04:02:00,
2013-07-18 22:11:00,84.0,40.0,-100.00,NE,40,4.0,8.0,21,0.00,,,0.00,,2013-07-19 04:11:00,
2013-07-18 22:22:00,84.0,40.0,-100.00,NE,40,4.0,8.0,21,0.00,,,0.00,,2013-07-19 04:22:00,
2013-07-18 22:32:00,83.0,40.0,-100.00,NE,49,3.0,6.0,21,0.00,,,0.00,,2013-07-19 04:32:00,
2013-07-18 22:43:00,83.0,40.0,-100.00,NE,49,3.0,6.0,21,0.00,,,0.00,,2013-07-19 04:43:00,
2013-07-18 23:02:00,83.0,40.0,-100.00,NNW,337,4.0,8.0,22,0.00,,,0.00,,2013-07-19 05:02:00,
2013-07-18 23:11:00,83.0,40.0,-100.00,NNW,337,4.0,8.0,22,0.00,,,0.00,,2013-07-19 05:11:00,
2013-07-18 23:22:00,83.0,40.0,-100.00,NNW,337,4.0,8.0,22,0.00,,,0.00,,2013-07-19 05:22:00,
2013-07-18 23:32:00,81.0,41.0,-100.00,NW,305,3.0,6.0,24,0.00,,,0.00,,2013-07-19 05:32:00,
2013-07-18 23:43:00,81.0,41.0,-100.00,NW,305,3.0,6.0,24,0.00,,,0.00,,2013-07-19 05:43:00,
2013-07-18 23:53:00,81.0,41.0,-100.00,NW,305,3.0,6.0,24,0.00,,,0.00,,2013-07-19 05:53:00,